createdAt,value
2023-03-07T00:01:39.736Z,97828.00
2023-03-07T00:04:12.769Z,97836.00
2023-03-07T00:06:39.827Z,97845.00
2023-03-07T00:09:06.829Z,97846.00
2023-03-07T00:11:40.693Z,97839.00
2023-03-07T00:14:08.270Z,97830.00
2023-03-07T00:16:41.735Z,97835.00
2023-03-07T00:19:21.704Z,97829.00
2023-03-07T00:21:48.632Z,97843.00
2023-03-07T00:24:21.674Z,97839.00
2023-03-07T00:29:49.588Z,97835.00
2023-03-07T00:32:23.723Z,97851.00
2023-03-07T00:34:50.742Z,97846.00
2023-03-07T00:37:23.674Z,97847.00
2023-03-07T00:39:56.631Z,97840.00
2023-03-07T00:42:30.733Z,97843.00
2023-03-07T00:44:57.695Z,97826.00
2023-03-07T00:47:30.744Z,97828.00
2023-03-07T00:49:57.684Z,97836.00
2023-03-07T00:52:30.652Z,97842.00
2023-03-07T00:54:57.584Z,97848.00
2023-03-07T00:57:30.692Z,97832.00
2023-03-07T00:59:57.610Z,97846.00
2023-03-07T01:02:30.758Z,97842.00
2023-03-07T01:04:57.651Z,97826.00
2023-03-07T01:07:24.595Z,97839.00
2023-03-07T01:09:58.682Z,97817.00
2023-03-07T01:12:31.693Z,97817.00
2023-03-07T01:14:58.633Z,97807.00
2023-03-07T01:17:32.722Z,97804.00
2023-03-07T01:20:00.146Z,97803.00
2023-03-07T01:22:27.117Z,97822.00
2023-03-07T01:25:00.780Z,97823.00
2023-03-07T01:27:27.769Z,97819.00
2023-03-07T01:30:01.714Z,97814.00
2023-03-07T01:32:28.685Z,97815.00
2023-03-07T01:35:01.713Z,97808.00
2023-03-07T01:37:28.729Z,97811.00
2023-03-07T01:40:01.733Z,97814.00
2023-03-07T01:42:37.733Z,97805.00
2023-03-07T01:45:33.647Z,97783.00
2023-03-07T01:48:06.804Z,97785.00
2023-03-07T01:50:33.755Z,97783.00
2023-03-07T01:53:07.781Z,97788.00
2023-03-07T01:55:35.143Z,97786.00
2023-03-07T01:58:15.700Z,97785.00
2023-03-07T02:00:48.699Z,97779.00
2023-03-07T02:03:32.755Z,97767.00
2023-03-07T02:06:12.140Z,97780.00
2023-03-07T02:08:39.392Z,97780.00
2023-03-07T02:11:12.676Z,97784.00
2023-03-07T02:13:39.660Z,97748.00
2023-03-07T02:16:13.822Z,97780.00
2023-03-07T02:18:45.676Z,97767.00
2023-03-07T02:21:24.778Z,97765.00
2023-03-07T02:24:12.823Z,97782.00
2023-03-07T02:26:57.721Z,97762.00
2023-03-07T02:29:35.884Z,97765.00
2023-03-07T02:32:09.808Z,97779.00
2023-03-07T02:34:36.888Z,97777.00
2023-03-07T02:37:17.733Z,97783.00
2023-03-07T02:39:52.760Z,97765.00
2023-03-07T02:42:29.689Z,97775.00
2023-03-07T02:45:07.752Z,97753.00
2023-03-07T02:47:34.717Z,97765.00
2023-03-07T02:50:08.701Z,97774.00
2023-03-07T02:52:35.682Z,97772.00
2023-03-07T02:55:08.776Z,97782.00
2023-03-07T02:57:35.784Z,97769.00
2023-03-07T03:00:10.746Z,97781.00
2023-03-07T03:02:43.846Z,97782.00
2023-03-07T03:05:17.724Z,97772.00
2023-03-07T03:07:50.822Z,97761.00
2023-03-07T03:10:17.913Z,97758.00
2023-03-07T03:12:51.824Z,97773.00
2023-03-07T03:15:18.771Z,97756.00
2023-03-07T03:17:51.774Z,97767.00
2023-03-07T03:20:25.800Z,97749.00
2023-03-07T03:22:52.986Z,97760.00
2023-03-07T03:25:26.739Z,97756.00
2023-03-07T03:27:59.777Z,97771.00
2023-03-07T03:30:27.428Z,97776.00
2023-03-07T03:33:00.836Z,97769.00
2023-03-07T03:35:27.944Z,97762.00
2023-03-07T03:38:01.895Z,97758.00
2023-03-07T03:40:28.827Z,97762.00
2023-03-07T03:42:55.739Z,97750.00
2023-03-07T03:45:28.754Z,97767.00
2023-03-07T03:48:01.790Z,97760.00
2023-03-07T03:50:28.625Z,97757.00
2023-03-07T03:53:01.858Z,97744.00
2023-03-07T03:55:28.850Z,97770.00
2023-03-07T03:57:55.860Z,97746.00
2023-03-07T04:00:29.797Z,97760.00
2023-03-07T04:02:57.102Z,97767.00
2023-03-07T04:05:24.160Z,97767.00
2023-03-07T04:07:57.799Z,97773.00
2023-03-07T04:10:24.705Z,97753.00
2023-03-07T04:12:57.791Z,97755.00
2023-03-07T04:15:24.777Z,97771.00
2023-03-07T04:17:58.791Z,97767.00
2023-03-07T04:20:25.738Z,97774.00
2023-03-07T04:22:52.783Z,97782.00
2023-03-07T04:25:25.783Z,97778.00
2023-03-07T04:27:52.769Z,97755.00
2023-03-07T04:30:25.815Z,97782.00
2023-03-07T04:32:52.945Z,97783.00
2023-03-07T04:35:26.791Z,97778.00
2023-03-07T04:37:53.821Z,97775.00
2023-03-07T04:40:27.778Z,97771.00
2023-03-07T04:42:54.811Z,97769.00
2023-03-07T04:45:28.774Z,97768.00
2023-03-07T04:47:55.817Z,97793.00
2023-03-07T04:50:28.808Z,97771.00
2023-03-07T04:52:55.717Z,97787.00
2023-03-07T04:55:22.725Z,97795.00
2023-03-07T04:57:55.797Z,97792.00
2023-03-07T05:00:22.737Z,97792.00
2023-03-07T05:02:55.828Z,97784.00
2023-03-07T05:05:22.881Z,97780.00
2023-03-07T05:07:55.823Z,97782.00
2023-03-07T05:10:22.773Z,97785.00
2023-03-07T05:12:55.842Z,97767.00
2023-03-07T05:15:28.880Z,97787.00
2023-03-07T05:17:55.841Z,97786.00
2023-03-07T05:20:28.824Z,97788.00
2023-03-07T05:23:03.860Z,97799.00
2023-03-07T05:25:30.749Z,97797.00
2023-03-07T05:27:57.675Z,97780.00
2023-03-07T05:30:30.827Z,97788.00
2023-03-07T05:32:57.730Z,97797.00
2023-03-07T05:35:30.855Z,97791.00
2023-03-07T05:37:57.767Z,97777.00
2023-03-07T05:40:30.844Z,97791.00
2023-03-07T05:42:57.718Z,97801.00
2023-03-07T05:45:30.829Z,97793.00
2023-03-07T05:47:57.748Z,97797.00
2023-03-07T05:50:30.795Z,97791.00
2023-03-07T05:52:57.716Z,97808.00
2023-03-07T05:55:24.617Z,97791.00
2023-03-07T05:57:57.839Z,97813.00
2023-03-07T06:00:31.881Z,97801.00
2023-03-07T06:03:00.985Z,97805.00
2023-03-07T06:05:34.806Z,97794.00
2023-03-07T06:08:07.845Z,97809.00
2023-03-07T06:10:34.751Z,97816.00
2023-03-07T06:13:01.871Z,97805.00
2023-03-07T06:15:34.844Z,97801.00
2023-03-07T06:18:01.765Z,97806.00
2023-03-07T06:20:34.869Z,97801.00
2023-03-07T06:23:14.873Z,97786.00
2023-03-07T06:25:41.789Z,97809.00
2023-03-07T06:28:14.834Z,97814.00
2023-03-07T06:30:41.803Z,97808.00
2023-03-07T06:33:14.913Z,97818.00
2023-03-07T06:35:45.257Z,97814.00
2023-03-07T06:38:20.838Z,97809.00
2023-03-07T06:41:02.857Z,97796.00
2023-03-07T06:43:35.905Z,97807.00
2023-03-07T06:46:03.412Z,97810.00
2023-03-07T06:48:36.859Z,97798.00
2023-03-07T06:51:15.063Z,97788.00
2023-03-07T06:53:42.063Z,97810.00
2023-03-07T06:56:16.003Z,97802.00
2023-03-07T06:58:49.884Z,97822.00
2023-03-07T07:01:24.841Z,97821.00
2023-03-07T07:03:52.150Z,97820.00
2023-03-07T07:06:25.839Z,97830.00
2023-03-07T07:08:56.698Z,97834.00
2023-03-07T07:11:30.900Z,97824.00
2023-03-07T07:13:57.912Z,97840.00
2023-03-07T07:16:30.864Z,97843.00
2023-03-07T07:19:03.823Z,97832.00
2023-03-07T07:21:30.762Z,97839.00
2023-03-07T07:24:04.872Z,97838.00
2023-03-07T07:26:31.823Z,97839.00
2023-03-07T07:29:04.876Z,97836.00
2023-03-07T07:31:31.853Z,97845.00
2023-03-07T07:33:58.757Z,97850.00
2023-03-07T07:36:32.890Z,97851.00
2023-03-07T07:39:09.884Z,97833.00
2023-03-07T07:41:36.836Z,97840.00
2023-03-07T07:44:09.892Z,97842.00
2023-03-07T07:46:42.924Z,97853.00
2023-03-07T07:49:09.855Z,97834.00
2023-03-07T07:51:42.948Z,97841.00
2023-03-07T07:54:09.894Z,97851.00
2023-03-07T07:56:42.897Z,97849.00
2023-03-07T07:59:09.892Z,97854.00
2023-03-07T08:01:42.927Z,97855.00
2023-03-07T08:04:15.930Z,97862.00
2023-03-07T08:06:42.986Z,97869.00
2023-03-07T08:09:16.855Z,97872.00
2023-03-07T08:11:43.748Z,97856.00
2023-03-07T08:14:16.898Z,97879.00
2023-03-07T08:16:43.839Z,97863.00
2023-03-07T08:19:16.892Z,97853.00
2023-03-07T08:21:43.796Z,97854.00
2023-03-07T08:24:17.034Z,97845.00
2023-03-07T08:26:47.090Z,97856.00
2023-03-07T08:29:20.948Z,97853.00
2023-03-07T08:31:53.943Z,97848.00
2023-03-07T08:34:21.126Z,97844.00
2023-03-07T08:36:48.056Z,97874.00
2023-03-07T08:39:21.868Z,97841.00
2023-03-07T08:41:48.764Z,97848.00
2023-03-07T08:44:21.923Z,97857.00
2023-03-07T08:46:48.835Z,97841.00
2023-03-07T08:49:21.980Z,97841.00
2023-03-07T08:51:55.891Z,97840.00
2023-03-07T08:54:22.756Z,97834.00
2023-03-07T08:56:49.634Z,97842.00
2023-03-07T08:59:22.931Z,97834.00
2023-03-07T09:01:49.909Z,97839.00
2023-03-07T09:04:23.001Z,97824.00
2023-03-07T09:06:50.088Z,97844.00
2023-03-07T09:09:17.104Z,97859.00
2023-03-07T09:11:50.933Z,97860.00
2023-03-07T09:14:17.879Z,97829.00
2023-03-07T09:16:44.820Z,97844.00
2023-03-07T09:19:17.960Z,97855.00
2023-03-07T09:21:44.890Z,97852.00
2023-03-07T09:24:11.839Z,97842.00
2023-03-07T09:26:44.931Z,97871.00
2023-03-07T09:29:11.839Z,97839.00
2023-03-07T09:31:45.046Z,97843.00
2023-03-07T09:34:12.089Z,97848.00
2023-03-07T09:36:45.926Z,97862.00
2023-03-07T09:39:12.859Z,97857.00
2023-03-07T09:42:15.992Z,97853.00
2023-03-07T09:45:10.943Z,97854.00
2023-03-07T09:47:59.841Z,97845.00
2023-03-07T09:51:11.503Z,97863.00
2023-03-07T09:54:05.013Z,97852.00
2023-03-07T09:56:51.960Z,97845.00
2023-03-07T09:59:41.043Z,97839.00
2023-03-07T10:02:32.979Z,97818.00
2023-03-07T10:05:11.009Z,97825.00
2023-03-07T10:07:44.998Z,97813.00
2023-03-07T10:10:41.665Z,97837.00
2023-03-07T10:13:51.994Z,97840.00
2023-03-07T10:16:46.502Z,97807.00
2023-03-07T10:19:48.970Z,97827.00
2023-03-07T10:23:04.327Z,97832.00
2023-03-07T10:25:54.046Z,97827.00
2023-03-07T10:28:32.135Z,97819.00
2023-03-07T10:31:20.262Z,97808.00
2023-03-07T10:33:55.121Z,97813.00
2023-03-07T10:37:09.311Z,97810.00
2023-03-07T10:39:59.970Z,97765.00
2023-03-07T10:42:30.866Z,97801.00
2023-03-07T10:45:05.017Z,97789.00
2023-03-07T10:47:39.076Z,97785.00
2023-03-07T10:50:55.003Z,97762.00
2023-03-07T10:53:33.643Z,97782.00
2023-03-07T10:56:20.111Z,97788.00
2023-03-07T10:59:07.880Z,97784.00
2023-03-07T11:01:41.993Z,97794.00
2023-03-07T11:04:28.019Z,97785.00
2023-03-07T11:06:59.727Z,97783.00
2023-03-07T11:09:44.024Z,97781.00
2023-03-07T11:12:13.456Z,97759.00
2023-03-07T11:15:16.038Z,97776.00
2023-03-07T11:17:52.084Z,97768.00
2023-03-07T11:20:25.700Z,97771.00
2023-03-07T11:23:28.023Z,97778.00
2023-03-07T11:25:56.342Z,97790.00
2023-03-07T11:28:41.043Z,97762.00
2023-03-07T11:31:31.969Z,97787.00
2023-03-07T11:34:29.009Z,97785.00
2023-03-07T11:37:02.445Z,97779.00
2023-03-07T11:39:51.048Z,97779.00
2023-03-07T11:42:24.060Z,97758.00
2023-03-07T11:45:01.005Z,97768.00
2023-03-07T11:47:46.115Z,97732.00
2023-03-07T11:50:25.118Z,97765.00
2023-03-07T11:53:27.040Z,97737.00
2023-03-07T11:56:29.210Z,97739.00
2023-03-07T11:59:16.095Z,97733.00
2023-03-07T12:01:58.588Z,97724.00
2023-03-07T12:05:31.131Z,97725.00
2023-03-07T12:08:23.139Z,97719.00
2023-03-07T12:11:51.033Z,97715.00
2023-03-07T12:14:48.165Z,97709.00
2023-03-07T12:17:36.120Z,97709.00
2023-03-07T12:20:23.932Z,97707.00
2023-03-07T12:23:12.124Z,97691.00
2023-03-07T12:25:54.050Z,97703.00
2023-03-07T12:28:52.209Z,97684.00
2023-03-07T12:31:35.665Z,97679.00
2023-03-07T12:34:23.033Z,97690.00
2023-03-07T12:36:56.322Z,97688.00
2023-03-07T12:39:59.160Z,97675.00
2023-03-07T12:43:23.117Z,97705.00
2023-03-07T12:46:30.156Z,97677.00
2023-03-07T12:49:56.146Z,97649.00
2023-03-07T12:52:43.083Z,97683.00
2023-03-07T12:55:34.057Z,97682.00
2023-03-07T12:58:40.133Z,97685.00
2023-03-07T13:01:35.158Z,97678.00
2023-03-07T13:04:34.162Z,97669.00
2023-03-07T13:07:30.073Z,97660.00
2023-03-07T13:09:59.288Z,97640.00
2023-03-07T13:12:39.066Z,97659.00
2023-03-07T13:15:25.107Z,97657.00
2023-03-07T13:17:52.014Z,97654.00
2023-03-07T13:20:34.086Z,97645.00
2023-03-07T13:23:12.703Z,97640.00
2023-03-07T13:25:57.070Z,97643.00
2023-03-07T13:28:36.491Z,97651.00
2023-03-07T13:31:22.100Z,97651.00
2023-03-07T13:33:55.087Z,97624.00
2023-03-07T13:36:36.957Z,97628.00
2023-03-07T13:39:11.114Z,97638.00
2023-03-07T13:41:49.143Z,97644.00
2023-03-07T13:44:47.155Z,97635.00
2023-03-07T13:47:49.201Z,97635.00
2023-03-07T13:50:34.601Z,97638.00
2023-03-07T13:53:25.086Z,97635.00
2023-03-07T13:56:16.147Z,97621.00
2023-03-07T13:59:21.136Z,97625.00
2023-03-07T14:02:06.789Z,97615.00
2023-03-07T14:04:55.077Z,97624.00
2023-03-07T14:07:34.258Z,97606.00
2023-03-07T14:10:33.108Z,97613.00
2023-03-07T14:13:51.140Z,97626.00
2023-03-07T14:16:36.255Z,97630.00
2023-03-07T14:20:05.142Z,97619.00
2023-03-07T14:22:51.143Z,97624.00
2023-03-07T14:25:45.179Z,97611.00
2023-03-07T14:28:26.894Z,97607.00
2023-03-07T14:31:06.220Z,97611.00
2023-03-07T14:33:38.534Z,97603.00
2023-03-07T14:36:34.272Z,97609.00
2023-03-07T14:39:01.230Z,97585.00
2023-03-07T14:41:59.140Z,97601.00
2023-03-07T14:44:45.466Z,97603.00
2023-03-07T14:47:42.197Z,97602.00
2023-03-07T14:50:16.387Z,97604.00
2023-03-07T14:52:50.157Z,97604.00
2023-03-07T14:55:20.052Z,97607.00
2023-03-07T14:57:55.116Z,97618.00
2023-03-07T15:00:24.395Z,97602.00
2023-03-07T15:03:03.194Z,97606.00
2023-03-07T15:05:33.054Z,97611.00
2023-03-07T15:07:59.998Z,97621.00
2023-03-07T15:10:49.156Z,97614.00
2023-03-07T15:14:14.998Z,97615.00
2023-03-07T15:17:00.233Z,97601.00
2023-03-07T15:19:48.083Z,97595.00
2023-03-07T15:22:40.243Z,97588.00
2023-03-07T15:25:27.169Z,97585.00
2023-03-07T15:28:07.149Z,97586.00
2023-03-07T15:30:43.143Z,97580.00
2023-03-07T15:33:26.246Z,97577.00
2023-03-07T15:36:25.296Z,97563.00
2023-03-07T15:38:59.227Z,97558.00
2023-03-07T15:41:28.948Z,97569.00
2023-03-07T15:44:17.189Z,97570.00
2023-03-07T15:46:52.688Z,97566.00
2023-03-07T15:49:56.204Z,97575.00
2023-03-07T15:52:39.213Z,97573.00
2023-03-07T15:55:16.280Z,97579.00
2023-03-07T15:58:01.356Z,97578.00
2023-03-07T16:00:35.888Z,97575.00
2023-03-07T16:03:35.338Z,97577.00
2023-03-07T16:06:02.463Z,97576.00
2023-03-07T16:08:36.188Z,97580.00
2023-03-07T16:11:05.278Z,97567.00
2023-03-07T16:13:49.251Z,97585.00
2023-03-07T16:16:25.066Z,97590.00
2023-03-07T16:18:58.224Z,97585.00
2023-03-07T16:21:25.315Z,97585.00
2023-03-07T16:23:52.353Z,97590.00
2023-03-07T16:26:30.201Z,97584.00
2023-03-07T16:29:03.163Z,97592.00
2023-03-07T16:31:30.324Z,97581.00
2023-03-07T16:34:04.189Z,97585.00
2023-03-07T16:36:37.237Z,97581.00
2023-03-07T16:39:10.182Z,97577.00
2023-03-07T16:41:45.750Z,97594.00
2023-03-07T16:44:24.230Z,97600.00
2023-03-07T16:47:15.170Z,97597.00
2023-03-07T16:49:48.231Z,97592.00
2023-03-07T16:52:15.217Z,97588.00
2023-03-07T16:54:48.200Z,97599.00
2023-03-07T16:57:22.196Z,97595.00
2023-03-07T16:59:55.232Z,97588.00
2023-03-07T17:02:22.340Z,97602.00
2023-03-07T17:04:56.238Z,97609.00
2023-03-07T17:07:23.700Z,97606.00
2023-03-07T17:09:57.231Z,97613.00
2023-03-07T17:12:24.404Z,97598.00
2023-03-07T17:14:58.203Z,97599.00
2023-03-07T17:17:31.358Z,97623.00
2023-03-07T17:20:05.229Z,97610.00
2023-03-07T17:22:32.518Z,97620.00
2023-03-07T17:24:59.508Z,97608.00
2023-03-07T17:27:33.193Z,97618.00
2023-03-07T17:30:00.158Z,97626.00
2023-03-07T17:32:33.308Z,97641.00
2023-03-07T17:35:00.311Z,97640.00
2023-03-07T17:37:27.286Z,97643.00
2023-03-07T17:40:01.309Z,97641.00
2023-03-07T17:42:28.328Z,97642.00
2023-03-07T17:45:02.317Z,97646.00
2023-03-07T17:47:29.274Z,97658.00
2023-03-07T17:49:56.189Z,97656.00
2023-03-07T17:52:29.281Z,97661.00
2023-03-07T17:55:02.324Z,97646.00
2023-03-07T17:57:29.344Z,97674.00
2023-03-07T18:00:11.277Z,97674.00
2023-03-07T18:02:38.295Z,97664.00
2023-03-07T18:05:06.581Z,97672.00
2023-03-07T18:07:40.261Z,97667.00
2023-03-07T18:10:09.018Z,97660.00
2023-03-07T18:12:43.341Z,97674.00
2023-03-07T18:15:14.938Z,97659.00
2023-03-07T18:17:49.297Z,97656.00
2023-03-07T18:20:18.555Z,97626.00
2023-03-07T18:22:56.719Z,97644.00
2023-03-07T18:25:25.538Z,97666.00
2023-03-07T18:27:59.315Z,97664.00
2023-03-07T18:30:26.270Z,97660.00
2023-03-07T18:33:08.282Z,97669.00
2023-03-07T18:35:44.409Z,97670.00
2023-03-07T18:38:11.491Z,97647.00
2023-03-07T18:40:45.250Z,97639.00
2023-03-07T18:43:19.295Z,97634.00
2023-03-07T18:45:53.000Z,97666.00
2023-03-07T18:48:26.450Z,97646.00
2023-03-07T18:51:01.009Z,97667.00
2023-03-07T18:53:34.305Z,97674.00
2023-03-07T18:56:15.314Z,97668.00
2023-03-07T18:58:49.262Z,97657.00
2023-03-07T19:01:17.910Z,97644.00
2023-03-07T19:03:52.288Z,97662.00
2023-03-07T19:06:20.156Z,97655.00
2023-03-07T19:08:53.341Z,97640.00
2023-03-07T19:11:27.259Z,97652.00
2023-03-07T19:13:54.283Z,97659.00
2023-03-07T19:16:30.381Z,97645.00
2023-03-07T19:18:57.700Z,97651.00
2023-03-07T19:21:33.323Z,97657.00
2023-03-07T19:24:07.335Z,97651.00
2023-03-07T19:26:34.267Z,97666.00
2023-03-07T19:29:01.158Z,97671.00
2023-03-07T19:31:36.325Z,97664.00
2023-03-07T19:34:03.703Z,97648.00
2023-03-07T19:36:30.804Z,97660.00
2023-03-07T19:39:04.327Z,97680.00
2023-03-07T19:41:32.285Z,97680.00
2023-03-07T19:44:00.375Z,97673.00
2023-03-07T19:46:34.318Z,97658.00
2023-03-07T19:49:08.366Z,97695.00
2023-03-07T19:51:42.338Z,97689.00
2023-03-07T19:54:13.191Z,97696.00
2023-03-07T19:56:46.308Z,97697.00
2023-03-07T19:59:20.896Z,97680.00
2023-03-07T20:01:54.349Z,97677.00
2023-03-07T20:04:27.346Z,97686.00
2023-03-07T20:06:54.276Z,97681.00
2023-03-07T20:09:27.362Z,97660.00
2023-03-07T20:11:54.486Z,97685.00
2023-03-07T20:14:28.311Z,97681.00
2023-03-07T20:16:55.325Z,97673.00
2023-03-07T20:19:28.320Z,97667.00
2023-03-07T20:22:01.374Z,97683.00
2023-03-07T20:24:28.369Z,97674.00
2023-03-07T20:27:02.376Z,97683.00
2023-03-07T20:29:36.384Z,97679.00
2023-03-07T20:32:03.482Z,97677.00
2023-03-07T20:34:30.592Z,97685.00
2023-03-07T20:37:04.356Z,97649.00
2023-03-07T20:39:38.316Z,97694.00
2023-03-07T20:42:12.327Z,97694.00
2023-03-07T20:44:46.369Z,97680.00
2023-03-07T20:47:13.336Z,97670.00
2023-03-07T20:49:46.412Z,97685.00
2023-03-07T20:52:13.371Z,97694.00
2023-03-07T20:54:47.375Z,97656.00
2023-03-07T20:57:14.288Z,97693.00
2023-03-07T20:59:47.472Z,97675.00
2023-03-07T21:02:14.499Z,97682.00
2023-03-07T21:04:41.509Z,97694.00
2023-03-07T21:07:15.382Z,97703.00
2023-03-07T21:09:42.368Z,97694.00
2023-03-07T21:12:16.410Z,97698.00
2023-03-07T21:14:43.391Z,97711.00
2023-03-07T21:17:16.415Z,97687.00
2023-03-07T21:19:43.434Z,97708.00
2023-03-07T21:22:17.457Z,97704.00
2023-03-07T21:24:51.366Z,97689.00
2023-03-07T21:27:25.478Z,97700.00
2023-03-07T21:29:52.464Z,97717.00
2023-03-07T21:32:26.497Z,97726.00
2023-03-07T21:35:00.433Z,97726.00
2023-03-07T21:37:27.440Z,97725.00
2023-03-07T21:39:54.333Z,97691.00
2023-03-07T21:42:27.430Z,97709.00
2023-03-07T21:44:54.362Z,97729.00
2023-03-07T21:47:27.417Z,97736.00
2023-03-07T21:49:54.414Z,97737.00
2023-03-07T21:52:28.361Z,97697.00
2023-03-07T21:54:55.415Z,97710.00
2023-03-07T21:57:28.378Z,97711.00
2023-03-07T22:00:01.392Z,97735.00
2023-03-07T22:02:28.306Z,97732.00
2023-03-07T22:05:01.452Z,97726.00
2023-03-07T22:07:28.466Z,97724.00
2023-03-07T22:10:02.425Z,97727.00
2023-03-07T22:12:29.416Z,97729.00
2023-03-07T22:14:56.419Z,97725.00
2023-03-07T22:17:30.464Z,97750.00
2023-03-07T22:19:57.458Z,97771.00
2023-03-07T22:22:31.440Z,97772.00
2023-03-07T22:24:58.434Z,97773.00
2023-03-07T22:27:32.377Z,97776.00
2023-03-07T22:29:59.370Z,97780.00
2023-03-07T22:32:26.374Z,97779.00
2023-03-07T22:35:00.419Z,97783.00
2023-03-07T22:37:27.644Z,97776.00
2023-03-07T22:40:01.411Z,97785.00
2023-03-07T22:42:28.416Z,97788.00
2023-03-07T22:44:55.494Z,97784.00
2023-03-07T22:47:29.383Z,97767.00
2023-03-07T22:49:56.441Z,97762.00
2023-03-07T22:52:29.558Z,97757.00
2023-03-07T22:54:56.468Z,97761.00
2023-03-07T22:57:30.411Z,97778.00
2023-03-07T22:59:57.393Z,97758.00
2023-03-07T23:02:30.401Z,97777.00
2023-03-07T23:04:57.329Z,97751.00
2023-03-07T23:07:30.443Z,97750.00
2023-03-07T23:09:57.385Z,97751.00
2023-03-07T23:12:24.339Z,97769.00
2023-03-07T23:14:57.491Z,97765.00
2023-03-07T23:17:31.451Z,97749.00
2023-03-07T23:19:58.386Z,97747.00
2023-03-07T23:22:31.416Z,97746.00
2023-03-07T23:25:04.434Z,97753.00
2023-03-07T23:27:38.466Z,97739.00
2023-03-07T23:30:09.540Z,97768.00
2023-03-07T23:32:43.453Z,97765.00
2023-03-07T23:35:10.403Z,97771.00
2023-03-07T23:37:43.421Z,97739.00
2023-03-07T23:40:11.425Z,97758.00
2023-03-07T23:42:44.427Z,97775.00
2023-03-07T23:45:11.579Z,97788.00
2023-03-07T23:47:45.428Z,97802.00
2023-03-07T23:50:12.402Z,97803.00
2023-03-07T23:52:45.401Z,97810.00
2023-03-07T23:55:18.439Z,97787.00
2023-03-07T23:57:46.566Z,97791.00
